createdAt,value
2022-12-12T00:01:04.478Z,37.22
2022-12-12T00:06:27.040Z,37.33
2022-12-12T00:11:48.699Z,37.14
2022-12-12T00:17:10.506Z,37.27
2022-12-12T00:22:32.344Z,37.10
2022-12-12T00:27:54.110Z,37.01
2022-12-12T00:33:15.784Z,37.27
2022-12-12T00:38:37.436Z,37.11
2022-12-12T00:43:59.124Z,36.94
2022-12-12T00:49:20.883Z,37.16
2022-12-12T00:54:42.693Z,37.13
2022-12-12T01:00:06.338Z,37.03
2022-12-12T01:05:28.440Z,36.98
2022-12-12T01:10:50.131Z,37.08
2022-12-12T01:16:12.827Z,37.06
2022-12-12T01:21:34.608Z,37.07
2022-12-12T01:26:56.273Z,37.01
2022-12-12T01:32:18.016Z,37.03
2022-12-12T01:37:40.883Z,37.10
2022-12-12T01:43:02.783Z,37.05
2022-12-12T01:48:30.203Z,37.12
2022-12-12T01:53:58.971Z,36.79
2022-12-12T01:59:24.435Z,36.77
2022-12-12T02:04:46.280Z,36.81
2022-12-12T02:10:08.650Z,36.99
2022-12-12T02:15:42.740Z,37.02
2022-12-12T02:21:16.229Z,37.10
2022-12-12T02:26:50.387Z,36.85
2022-12-12T02:32:22.253Z,36.97
2022-12-12T02:38:12.504Z,36.62
2022-12-12T02:44:19.143Z,36.61
2022-12-12T02:50:07.104Z,36.59
2022-12-12T02:55:32.466Z,36.76
2022-12-12T03:01:11.473Z,36.93
2022-12-12T03:07:00.928Z,36.57
2022-12-12T03:12:40.435Z,36.61
2022-12-12T03:18:05.110Z,36.45
2022-12-12T03:23:43.862Z,36.53
2022-12-12T03:29:16.590Z,36.65
2022-12-12T03:34:43.470Z,36.78
2022-12-12T03:40:10.437Z,36.82
2022-12-12T03:45:41.400Z,36.72
2022-12-12T03:51:12.043Z,36.52
2022-12-12T03:56:59.164Z,36.41
2022-12-12T04:02:38.565Z,36.40
2022-12-12T04:08:10.173Z,36.22
2022-12-12T04:13:57.024Z,36.49
2022-12-12T04:19:41.818Z,36.35
2022-12-12T04:25:11.371Z,36.37
2022-12-12T04:30:35.214Z,36.45
2022-12-12T04:36:00.452Z,36.53
2022-12-12T04:41:23.314Z,36.16
2022-12-12T04:46:48.610Z,36.37
2022-12-12T04:52:13.770Z,36.44
2022-12-12T04:57:41.973Z,36.56
2022-12-12T05:03:16.480Z,36.45
2022-12-12T05:08:48.908Z,36.13
2022-12-12T05:14:15.565Z,36.15
2022-12-12T05:19:37.301Z,36.23
2022-12-12T05:24:59.024Z,36.12
2022-12-12T05:30:20.788Z,36.31
2022-12-12T05:35:42.495Z,36.03
2022-12-12T05:41:05.472Z,36.01
2022-12-12T05:46:27.246Z,36.15
2022-12-12T05:51:49.029Z,36.12
2022-12-12T05:57:10.776Z,36.24
2022-12-12T06:02:32.720Z,36.03
2022-12-12T06:07:54.446Z,35.90
2022-12-12T06:13:16.296Z,36.11
2022-12-12T06:18:38.076Z,36.26
2022-12-12T06:23:59.840Z,36.16
2022-12-12T06:29:21.754Z,36.15
2022-12-12T06:34:43.505Z,36.05
2022-12-12T06:40:05.785Z,36.28
2022-12-12T06:45:27.505Z,36.07
2022-12-12T06:50:49.233Z,36.23
2022-12-12T06:56:14.954Z,35.80
2022-12-12T07:01:36.575Z,35.87
2022-12-12T07:06:58.560Z,36.09
2022-12-12T07:12:20.362Z,35.90
2022-12-12T07:17:42.117Z,35.77
2022-12-12T07:23:04.094Z,36.08
2022-12-12T07:28:25.901Z,36.12
2022-12-12T07:33:47.880Z,36.22
2022-12-12T07:39:09.894Z,35.91
2022-12-12T07:44:31.636Z,36.12
2022-12-12T07:49:54.742Z,35.65
2022-12-12T07:55:16.799Z,35.92
2022-12-12T08:00:38.549Z,35.90
2022-12-12T08:06:00.187Z,35.63
2022-12-12T08:11:24.395Z,35.97
2022-12-12T08:16:46.200Z,35.95
2022-12-12T08:22:08.774Z,35.92
2022-12-12T08:27:30.416Z,35.58
2022-12-12T08:32:52.150Z,35.75
2022-12-12T08:38:14.776Z,35.87
2022-12-12T08:43:38.026Z,35.69
2022-12-12T08:48:59.712Z,35.96
2022-12-12T08:54:21.449Z,35.48
2022-12-12T08:59:43.149Z,35.43
2022-12-12T09:05:05.502Z,35.40
2022-12-12T09:10:28.217Z,35.75
2022-12-12T09:15:51.906Z,35.70
2022-12-12T09:21:13.765Z,35.47
2022-12-12T09:26:35.437Z,35.67
2022-12-12T09:31:57.426Z,35.65
2022-12-12T09:37:19.195Z,35.41
2022-12-12T09:42:49.372Z,35.85
2022-12-12T09:48:19.290Z,35.29
2022-12-12T09:53:44.126Z,35.45
2022-12-12T09:59:25.054Z,35.84
2022-12-12T10:05:02.942Z,35.77
2022-12-12T10:10:31.574Z,35.53
2022-12-12T10:16:08.373Z,36.00
2022-12-12T10:21:34.158Z,35.74
2022-12-12T10:26:55.846Z,35.98
2022-12-12T10:32:36.348Z,35.76
2022-12-12T10:38:00.714Z,35.82
2022-12-12T10:43:24.525Z,35.71
2022-12-12T10:48:48.586Z,35.84
2022-12-12T10:54:22.279Z,35.55
2022-12-12T10:59:46.795Z,35.56
2022-12-12T11:05:16.845Z,35.86
2022-12-12T11:10:38.624Z,35.84
2022-12-12T11:16:12.903Z,35.80
2022-12-12T11:21:36.808Z,35.88
2022-12-12T11:27:00.332Z,36.07
2022-12-12T11:32:30.008Z,36.03
2022-12-12T11:37:55.988Z,35.87
2022-12-12T11:43:29.168Z,35.88
2022-12-12T11:48:53.973Z,35.87
2022-12-12T11:54:22.865Z,36.18
2022-12-12T11:59:59.242Z,35.70
2022-12-12T12:05:28.088Z,35.94
2022-12-12T12:11:23.881Z,35.81
2022-12-12T12:16:47.219Z,35.72
2022-12-12T12:22:44.687Z,35.92
2022-12-12T12:28:24.885Z,35.57
2022-12-12T12:33:49.256Z,35.91
2022-12-12T12:39:20.385Z,35.87
2022-12-12T12:44:47.884Z,35.63
2022-12-12T12:50:23.960Z,35.90
2022-12-12T12:55:50.820Z,35.95
2022-12-12T13:01:18.570Z,36.01
2022-12-12T13:06:47.411Z,35.77
2022-12-12T13:12:30.365Z,35.73
2022-12-12T13:18:04.689Z,35.88
2022-12-12T13:23:47.628Z,35.90
2022-12-12T13:29:29.330Z,36.07
2022-12-12T13:34:56.886Z,35.62
2022-12-12T13:40:28.596Z,35.98
2022-12-12T13:45:50.323Z,35.98
2022-12-12T13:51:31.137Z,35.77
2022-12-12T13:56:52.752Z,35.64
2022-12-12T14:02:23.363Z,35.64
2022-12-12T14:07:50.672Z,36.02
2022-12-12T14:13:21.333Z,35.88
2022-12-12T14:18:52.198Z,35.94
2022-12-12T14:24:32.549Z,35.56
2022-12-12T14:29:54.502Z,35.69
2022-12-12T14:35:31.528Z,35.41
2022-12-12T14:41:00.628Z,35.62
2022-12-12T14:46:22.327Z,35.63
2022-12-12T14:51:50.919Z,35.64
2022-12-12T14:57:19.756Z,35.88
2022-12-12T15:02:48.443Z,35.60
2022-12-12T15:08:19.359Z,35.38
2022-12-12T15:14:23.858Z,35.57
2022-12-12T15:19:52.313Z,35.80
2022-12-12T15:25:19.834Z,35.39
2022-12-12T15:30:43.985Z,35.44
2022-12-12T15:36:18.369Z,35.58
2022-12-12T15:41:40.495Z,35.33
2022-12-12T15:47:02.485Z,35.50
2022-12-12T15:52:30.574Z,35.61
2022-12-12T15:57:52.956Z,35.70
2022-12-12T16:03:17.367Z,35.50
2022-12-12T16:08:45.507Z,35.20
2022-12-12T16:14:37.058Z,35.41
2022-12-12T16:20:01.407Z,35.63
2022-12-12T16:25:29.538Z,35.53
2022-12-12T16:31:01.102Z,35.07
2022-12-12T16:36:22.749Z,35.41
2022-12-12T16:41:44.819Z,34.86
2022-12-12T16:47:23.753Z,34.21
2022-12-12T16:52:45.598Z,33.34
2022-12-12T16:58:07.796Z,32.63
2022-12-12T17:03:30.671Z,32.40
2022-12-12T17:08:52.405Z,31.84
2022-12-12T17:14:22.466Z,30.95
2022-12-12T17:19:44.257Z,30.79
2022-12-12T17:25:07.140Z,31.02
2022-12-12T17:30:29.039Z,30.81
2022-12-12T17:35:59.184Z,31.38
2022-12-12T17:41:21.049Z,31.39
2022-12-12T17:46:42.863Z,31.60
2022-12-12T17:52:05.051Z,31.79
2022-12-12T17:57:26.977Z,31.97
2022-12-12T18:02:48.753Z,32.17
2022-12-12T18:08:12.748Z,31.88
2022-12-12T18:13:35.261Z,32.19
2022-12-12T18:18:57.668Z,31.88
2022-12-12T18:24:21.573Z,32.10
2022-12-12T18:29:43.333Z,31.82
2022-12-12T18:35:05.453Z,31.36
2022-12-12T18:40:27.279Z,30.88
2022-12-12T18:45:49.023Z,30.80
2022-12-12T18:51:25.200Z,30.40
2022-12-12T18:56:47.477Z,30.52
2022-12-12T19:02:13.023Z,29.77
2022-12-12T19:07:34.720Z,30.25
2022-12-12T19:12:56.391Z,30.04
2022-12-12T19:18:18.111Z,30.49
2022-12-12T19:23:40.539Z,30.71
2022-12-12T19:29:05.171Z,31.20
2022-12-12T19:34:26.884Z,31.69
2022-12-12T19:39:50.794Z,31.67
2022-12-12T19:45:12.574Z,32.04
2022-12-12T19:50:37.512Z,32.36
2022-12-12T19:55:59.204Z,32.88
2022-12-12T20:01:28.698Z,32.85
2022-12-12T20:06:51.105Z,33.06
2022-12-12T20:12:13.046Z,33.42
2022-12-12T20:17:34.754Z,33.75
2022-12-12T20:22:56.503Z,32.98
2022-12-12T20:28:18.538Z,32.64
2022-12-12T20:33:40.942Z,33.00
2022-12-12T20:39:06.485Z,32.78
2022-12-12T20:44:29.268Z,32.08
2022-12-12T20:49:51.162Z,32.80
2022-12-12T20:55:13.020Z,33.13
2022-12-12T21:00:36.699Z,32.84
2022-12-12T21:05:59.740Z,33.52
2022-12-12T21:11:24.017Z,33.56
2022-12-12T21:16:45.931Z,33.18
2022-12-12T21:22:08.558Z,33.39
2022-12-12T21:27:31.527Z,33.77
2022-12-12T21:32:53.234Z,33.75
2022-12-12T21:38:14.928Z,33.75
2022-12-12T21:43:37.116Z,34.36
2022-12-12T21:49:17.561Z,33.96
2022-12-12T21:54:39.499Z,34.36
2022-12-12T22:00:01.190Z,34.35
2022-12-12T22:05:22.923Z,34.22
2022-12-12T22:10:44.617Z,34.52
2022-12-12T22:16:10.705Z,34.64
2022-12-12T22:21:32.667Z,34.72
2022-12-12T22:26:54.481Z,34.47
2022-12-12T22:32:16.234Z,34.45
2022-12-12T22:37:38.060Z,34.48
2022-12-12T22:42:59.890Z,34.43
2022-12-12T22:48:21.738Z,34.72
2022-12-12T22:53:44.466Z,34.62
2022-12-12T22:59:06.962Z,34.37
2022-12-12T23:04:28.716Z,34.59
2022-12-12T23:09:52.947Z,34.32
2022-12-12T23:15:14.856Z,34.39
2022-12-12T23:20:36.730Z,34.27
2022-12-12T23:26:07.178Z,34.60
2022-12-12T23:31:34.922Z,34.42
2022-12-12T23:36:57.087Z,34.71
2022-12-12T23:42:18.818Z,34.75
2022-12-12T23:47:40.473Z,34.44
2022-12-12T23:53:07.541Z,34.47
2022-12-12T23:58:32.062Z,34.48
